Latest Weather Observations for Mount Hotham Airport

IDV60801

Issued at 2:35 am EST Wednesday 30 July 2014 (issued every 30 minutes, with the page automatically refreshed every 10 minutes)

About weather observations | Map of weather stations | Latest weather observations for VIC | Other Formats
Station Details ID: 083055 Name: MOUNT HOTHAM AIRPORT Lat: -37.05 Lon: 147.33 Height: 1295.4 m
Data from the previous 72 hours. | See also: Recent months at Mount Hotham Airport
Date/Time
EST
Temp
°C
App
Temp
°C
Dew
Point
Rel
Hum
%
Delta-T
°C
Wind Press
QNH
hPa
Press
MSL
hPa
Rain
since 9 am
mm
Dir
 
Spd
km/h
Gust
km/h
Spd
kts
Gust
kts
30/02:30am 6.1 -1.8 4.4 89 0.8 WNW 35 56 19 30 1011.5 - 2.2
30/02:00am 6.0 -1.5 4.5 90 0.7 WNW 33 54 18 29 1011.4 - 2.0
30/01:55am 6.1 -1.4 4.6 90 0.7 WNW 33 52 18 28 1011.5 - 2.0
30/01:41am 6.0 -2.2 4.6 91 0.7 WNW 37 61 20 33 1011.7 - 2.0
30/01:30am 6.2 -2.0 4.5 89 0.8 WNW 37 63 20 34 1011.7 - 2.0
30/01:00am 5.9 -2.8 4.1 88 0.8 WNW 39 65 21 35 1011.3 - 1.8
30/12:30am 5.9 -3.1 4.5 91 0.7 WNW 41 65 22 35 1011.4 - 1.6
30/12:00am 6.2 -1.6 4.7 90 0.7 WNW 35 57 19 31 1011.3 1015.3 1.6
 
Date/Time
EST
Temp
°C
App
Temp
°C
Dew
Point
Rel
Hum
%
Delta-T
°C
Wind Press
QNH
hPa
Press
MSL
hPa
Rain
since 9 am
mm
Dir
 
Spd
km/h
Gust
km/h
Spd
kts
Gust
kts
29/11:30pm 6.0 -1.9 4.6 91 0.7 WNW 35 54 19 29 1011.2 - 1.6
29/11:01pm 5.9 -2.7 4.5 91 0.7 WNW 39 57 21 31 1011.5 - 1.4
29/11:00pm 6.0 -3.0 4.8 92 0.6 WNW 41 57 22 31 1011.5 - 1.4
29/10:49pm 6.1 -2.5 4.9 92 0.6 NW 39 57 21 31 1011.4 - 1.4
29/10:30pm 5.9 -1.9 4.9 93 0.5 NW 35 57 19 31 1011.7 - 1.2
29/10:25pm 5.9 -2.3 4.9 93 0.5 NW 37 56 20 30 1011.5 - 1.2
29/10:22pm 5.8 -2.1 4.6 92 0.6 NW 35 56 19 30 1011.8 - 1.2
29/10:00pm 5.6 -3.0 4.4 92 0.6 WNW 39 63 21 34 1011.9 - 1.0
29/09:30pm 5.4 -3.6 4.4 93 0.5 NW 41 63 22 34 1011.5 - 0.6
29/09:27pm 5.5 -3.9 4.3 92 0.6 NW 43 63 23 34 1011.4 - 0.6
29/09:16pm 5.6 -4.1 4.1 90 0.7 NW 44 74 24 40 1011.1 - 0.6
29/09:00pm 5.2 -3.5 4.2 93 0.5 NW 39 57 21 31 1011.3 1015.3 0.6
29/08:53pm 5.3 -3.4 4.1 92 0.6 NW 39 59 21 32 1011.2 - 0.4
29/08:30pm 5.2 -4.9 3.9 91 0.6 NW 46 74 25 40 1011.1 - 0.2
29/08:00pm 5.1 -4.7 3.4 89 0.8 NW 44 67 24 36 1011.1 - 0.0
29/07:30pm 5.0 -4.6 3.2 88 0.8 WNW 43 63 23 34 1011.1 - 0.0
29/07:00pm 5.1 -5.9 3.1 87 0.9 WNW 50 83 27 45 1010.5 - 0.0
29/06:30pm 5.1 -6.3 3.1 87 0.9 WNW 52 72 28 39 1010.3 - 0.0
29/06:08pm 5.0 -7.3 3.0 87 0.9 WNW 57 80 31 43 1010.1 - 0.0
29/06:00pm 5.0 -8.0 3.3 89 0.8 WNW 61 80 33 43 1009.7 1013.6 0.0
29/05:50pm 4.9 -7.7 3.4 90 0.7 NW 59 89 32 48 1009.4 - 0.0
29/05:30pm 5.4 -8.0 3.3 86 0.9 NW 63 93 34 50 1008.8 - 0.0
29/05:00pm 5.2 -7.1 3.4 88 0.8 NW 57 89 31 48 1008.8 - 0.0
29/04:30pm 5.4 -7.6 3.4 87 0.9 NW 61 93 33 50 1008.8 - 0.0
29/04:00pm 5.4 -6.7 3.1 85 1.0 NW 56 83 30 45 1008.6 - 0.0
29/03:46pm 5.2 -5.7 3.5 89 0.8 NW 50 69 27 37 1008.6 - 0.0
29/03:30pm 4.9 -6.4 3.2 89 0.8 NW 52 70 28 38 1009.2 - 0.0
29/03:27pm 5.0 -6.7 3.2 88 0.8 WNW 54 78 29 42 1009.2 - 0.0
29/03:00pm 5.4 -4.6 2.4 81 1.3 NW 44 74 24 40 1008.8 1012.7 0.0
29/02:30pm 6.0 -5.9 1.9 75 1.8 NW 54 78 29 42 1008.9 - 0.0
29/02:00pm 6.4 -3.9 2.5 76 1.7 NW 46 69 25 37 1009.2 - 0.0
29/01:30pm 6.2 -3.8 1.1 70 2.2 WNW 43 67 23 36 1010.0 - 0.0
29/01:03pm 6.3 -4.7 0.8 68 2.4 WNW 48 67 26 36 1010.1 - 0.0
29/01:00pm 6.5 -4.9 0.6 66 2.5 WNW 50 67 27 36 1010.5 - 0.0
29/12:30pm 6.4 -5.8 0.5 66 2.5 WNW 54 85 29 46 1010.1 - 0.0
29/12:00pm 6.4 -4.6 0.7 67 2.4 WNW 48 69 26 37 1010.2 1014.1 0.0
29/11:30am 6.0 -6.6 0.3 67 2.4 NW 56 87 30 47 1009.8 - 0.0
29/11:00am 6.5 -5.7 0.6 66 2.5 WNW 54 74 29 40 1011.2 - 0.0
29/10:30am 6.0 -5.1 0.1 66 2.5 NW 48 72 26 39 1011.4 - 0.0
29/10:00am 5.7 -4.6 0.1 67 2.3 NW 44 69 24 37 1011.5 - 0.0
29/09:30am 5.2 -7.0 0.0 69 2.2 NW 54 72 29 39 1011.7 - 0.0
29/09:00am 5.0 -7.9 -0.6 67 2.3 NW 57 78 31 42 1011.4 1015.4 0.0
29/08:30am 4.7 -8.2 -0.9 67 2.3 NW 57 82 31 44 1012.1 - 0.0
29/08:00am 5.1 -6.6 -1.8 61 2.7 NW 50 70 27 38 1012.0 - 0.0
29/07:30am 5.4 -6.7 -1.5 61 2.8 NW 52 83 28 45 1012.1 - 0.0
29/07:00am 5.7 -6.7 -1.4 60 2.9 NW 54 74 29 40 1011.9 - 0.0
29/06:30am 5.4 -7.9 -3.4 53 3.4 NW 57 80 31 43 1011.3 - 0.0
29/06:00am 5.2 -7.9 -1.9 60 2.8 NW 57 80 31 43 1011.2 1015.1 0.0
29/05:30am 5.2 -8.2 -1.3 63 2.6 NW 59 91 32 49 1010.8 - 0.0
29/05:00am 5.4 -9.1 -1.5 61 2.8 NW 65 87 35 47 1010.3 - 0.0
29/04:30am 5.3 -7.6 -0.3 67 2.3 NW 57 78 31 42 1010.8 - 0.0
29/04:00am 5.4 -7.8 0.2 69 2.2 NW 59 85 32 46 1010.6 - 0.0
29/03:30am 5.4 -6.8 0.0 68 2.3 WNW 54 78 29 42 1011.1 - 0.0
29/03:00am 5.3 -7.3 -0.1 68 2.2 NW 56 78 30 42 1011.2 1015.1 0.0
29/02:30am 5.7 -7.1 -0.1 66 2.4 NW 57 83 31 45 1011.2 - 0.0
29/02:00am 5.8 -7.4 0.2 67 2.4 NW 59 87 32 47 1011.4 - 0.0
29/01:30am 5.9 -6.6 0.7 69 2.2 NW 56 82 30 44 1011.8 - 0.0
29/01:00am 5.8 -5.7 0.0 66 2.4 NW 50 69 27 37 1012.3 - 0.0
29/12:30am 5.7 -4.4 0.5 69 2.2 NW 43 63 23 34 1012.9 - 0.0
29/12:00am 5.4 -3.1 0.6 71 2.0 NW 35 59 19 32 1013.5 1017.5 0.0
 
Date/Time
EST
Temp
°C
App
Temp
°C
Dew
Point
Rel
Hum
%
Delta-T
°C
Wind Press
QNH
hPa
Press
MSL
hPa
Rain
since 9 am
mm
Dir
 
Spd
km/h
Gust
km/h
Spd
kts
Gust
kts
28/11:30pm 5.2 -4.9 0.6 72 1.9 NW 43 63 23 34 1013.8 - 0.0
28/11:00pm 5.0 -5.3 0.6 73 1.9 NW 44 65 24 35 1013.9 - 0.0
28/10:30pm 5.3 -5.0 0.5 71 2.0 NW 44 69 24 37 1014.2 - 0.0
28/10:01pm 5.1 -4.2 0.7 73 1.9 NW 39 57 21 31 1014.6 - 0.0
28/10:00pm 5.1 -4.6 0.5 72 1.9 NW 41 57 22 31 1014.6 - 0.0
28/09:32pm 5.1 -4.6 0.5 72 1.9 NW 41 59 22 32 1014.6 - 0.0
28/09:30pm 5.0 -4.7 0.4 72 1.9 NW 41 57 22 31 1014.5 - 0.0
28/09:02pm 5.0 -5.3 0.6 73 1.9 NW 44 63 24 34 1014.4 - 0.0
28/09:00pm 5.0 -5.3 0.4 72 1.9 NW 44 61 24 33 1014.4 1018.4 0.0
28/08:30pm 5.1 -5.2 0.5 72 1.9 NW 44 70 24 38 1014.2 - 0.0
28/08:00pm 4.6 -5.1 0.6 75 1.7 WNW 41 65 22 35 1014.6 - 0.0
28/07:30pm 4.6 -5.1 0.4 74 1.8 WNW 41 70 22 38 1014.7 - 0.0
28/07:00pm 4.8 -5.4 0.0 71 2.0 NW 43 63 23 34 1014.8 - 0.0
28/06:30pm 4.8 -4.9 0.2 72 1.9 NW 41 67 22 36 1014.9 - 0.0
28/06:00pm 4.9 -4.6 -0.5 68 2.2 NW 39 61 21 33 1014.5 1018.5 0.0
28/05:49pm 5.1 -4.4 -0.5 67 2.3 NW 39 59 21 32 1014.4 - 0.0
28/05:30pm 5.0 -4.9 -0.6 67 2.3 NW 41 56 22 30 1014.4 - 0.0
28/05:02pm 5.2 -4.6 -0.2 68 2.2 NW 41 59 22 32 1014.4 - 0.0
28/05:00pm 5.3 -4.5 -0.1 68 2.2 NW 41 56 22 30 1014.5 - 0.0
28/04:30pm 5.9 -3.4 0.5 68 2.3 NW 39 61 21 33 1014.4 - 0.0
28/04:00pm 6.5 -1.4 0.8 67 2.4 NW 32 52 17 28 1014.6 - 0.0
28/03:30pm 7.1 -0.5 0.8 64 2.7 NW 30 54 16 29 1014.8 - 0.0
28/03:00pm 7.2 0.1 1.1 65 2.7 NW 28 48 15 26 1015.2 1019.3 0.0
28/02:30pm 7.9 2.0 1.5 64 2.8 NNW 22 46 12 25 1015.4 - 0.0
28/02:00pm 7.2 0.8 0.9 64 2.7 NNW 24 33 13 18 1015.6 - 0.0
28/01:30pm 7.3 0.6 1.4 66 2.6 NNW 26 41 14 22 1016.0 - 0.0
28/01:07pm 7.6 0.4 0.8 62 3.0 NNW 28 48 15 26 1016.2 - 0.0
28/01:00pm 7.0 0.5 0.5 63 2.8 NNW 24 41 13 22 1016.5 - 0.0
28/12:30pm 8.4 2.8 1.3 61 3.1 NW 20 37 11 20 1016.9 - 0.0
28/12:00pm 7.3 0.8 0.5 62 2.9 N 24 41 13 22 1017.4 1021.6 0.0
28/11:30am 7.7 1.4 1.5 65 2.7 N 24 37 13 20 1017.9 - 0.0
28/11:00am 6.6 0.9 0.3 64 2.7 N 20 35 11 19 1018.4 - 0.0
28/10:30am 6.8 1.2 1.1 67 2.5 NNW 20 35 11 19 1018.7 - 0.0
28/10:00am 6.2 -0.6 0.7 68 2.4 NNW 26 35 14 19 1018.7 - 0.0
28/09:30am 5.8 -0.3 0.6 69 2.2 NNW 22 35 12 19 1018.7 - 0.0
28/09:00am 5.7 1.4 1.1 72 2.0 NNW 13 24 7 13 1018.8 1023.0 0.0
28/08:30am 4.7 0.7 0.7 75 1.7 NNW 11 20 6 11 1018.9 - 0.0
28/08:00am 3.6 0.9 0.3 79 1.4 N 4 9 2 5 1019.0 - 0.0
28/07:30am 3.8 -0.6 0.1 77 1.5 NW 13 22 7 12 1018.9 - 0.0
28/07:00am 3.3 -1.2 -0.3 77 1.5 NW 13 26 7 14 1018.8 - 0.0
28/06:30am 3.5 -1.8 -0.5 75 1.6 WNW 17 20 9 11 1018.8 - 0.0
28/06:00am 3.9 -1.9 0.1 76 1.6 NW 20 32 11 17 1018.8 1023.0 0.0
28/05:30am 3.7 -1.9 -0.1 76 1.6 NW 19 32 10 17 1018.9 - 0.0
28/05:00am 3.8 -1.1 -0.4 74 1.7 NW 15 26 8 14 1018.9 - 0.0
28/04:30am 3.5 -1.8 -0.5 75 1.6 WNW 17 32 9 17 1018.8 - 0.0
28/04:00am 3.1 -1.1 -1.1 74 1.7 W 11 15 6 8 1018.8 - 0.0
28/03:31am 3.2 -5.0 -1.2 73 1.7 WNW 32 56 17 30 1018.4 - 0.0
28/03:30am 3.2 -5.0 -1.2 73 1.7 WNW 32 56 17 30 1018.4 - 0.0
28/03:18am 3.3 -4.5 -0.9 74 1.7 WNW 30 48 16 26 1018.4 - 0.0
28/03:11am 3.1 -4.7 -0.9 75 1.6 WNW 30 43 16 23 1018.6 - 0.0
28/03:02am 3.2 -4.2 -0.8 75 1.6 WNW 28 46 15 25 1018.7 - 0.0
28/03:00am 3.0 -4.4 -1.0 75 1.6 WNW 28 44 15 24 1018.8 1023.0 0.0
28/02:30am 2.6 -4.1 -1.2 76 1.5 WNW 24 37 13 20 1018.9 - 0.0
28/02:00am 2.6 -3.7 -1.2 76 1.5 WNW 22 39 12 21 1019.3 - 0.0
28/01:30am 2.9 -3.8 -1.1 75 1.6 WNW 24 37 13 20 1019.7 - 0.0
28/01:00am 3.4 -4.5 -1.2 72 1.8 WNW 30 43 16 23 1019.9 - 0.0
28/12:30am 3.3 -2.6 -0.5 76 1.5 WNW 20 33 11 18 1020.3 - 0.0
28/12:00am 2.7 -2.2 -0.7 78 1.3 NW 15 22 8 12 1020.5 1024.8 0.0
 
Date/Time
EST
Temp
°C
App
Temp
°C
Dew
Point
Rel
Hum
%
Delta-T
°C
Wind Press
QNH
hPa
Press
MSL
hPa
Rain
since 9 am
mm
Dir
 
Spd
km/h
Gust
km/h
Spd
kts
Gust
kts
27/11:30pm 1.8 -2.1 -1.6 78 1.3 WNW 9 15 5 8 1020.7 - 0.0
27/11:00pm 2.2 -4.9 -1.2 78 1.3 NNW 26 39 14 21 1020.4 - 0.0
27/10:30pm 2.0 -3.9 -1.1 80 1.2 NNW 20 30 11 16 1020.4 - 0.0
27/10:00pm 1.6 -3.1 -1.5 80 1.2 NW 13 19 7 10 1021.3 - 0.0
27/09:30pm 1.9 -3.1 -1.3 79 1.2 NW 15 22 8 12 1021.3 - 0.0
27/09:00pm 1.9 -2.3 -1.2 80 1.2 NW 11 17 6 9 1021.6 1025.9 0.0
27/08:30pm 2.2 -1.6 -1.1 79 1.3 W 9 20 5 11 1022.1 - 0.0
27/08:00pm 2.3 -3.4 -0.6 81 1.2 WNW 19 33 10 18 1022.0 - 0.0
27/07:32pm 2.5 -3.4 -0.8 79 1.3 NW 20 32 11 17 1021.5 - 0.0
27/07:30pm 2.6 -3.1 -0.7 79 1.3 NW 19 32 10 17 1021.6 - 0.0
27/07:16pm 2.7 -1.9 -0.7 78 1.4 NW 13 22 7 12 1021.8 - 0.0
27/07:00pm 2.9 -2.9 -0.4 79 1.3 NW 20 30 11 16 1021.5 - 0.0
27/06:30pm 3.0 -3.2 -0.1 80 1.3 WNW 22 30 12 16 1021.8 - 0.0
27/06:00pm 3.2 -2.5 -0.4 77 1.4 WNW 19 28 10 15 1021.3 1025.6 0.0
27/05:30pm 3.2 -1.4 -0.8 75 1.6 WNW 13 17 7 9 1020.8 - 0.0
27/05:00pm 4.0 -1.2 -0.2 74 1.7 NW 17 22 9 12 1020.7 - 0.0
27/04:30pm 4.5 -1.1 0.1 73 1.8 NW 19 32 10 17 1020.6 - 0.0
27/04:00pm 5.0 -0.8 0.2 71 2.0 NW 20 30 11 16 1021.4 - 0.0
27/03:30pm 6.4 1.6 0.5 66 2.5 NW 15 28 8 15 1021.3 - 0.0
27/03:00pm 6.2 1.0 0.3 66 2.5 NW 17 24 9 13 1021.6 1025.9 0.0
27/02:30pm 6.6 0.2 0.7 66 2.5 NW 24 33 13 18 1021.5 - 0.0
27/02:00pm 7.5 2.4 0.9 63 2.9 WNW 17 26 9 14 1021.5 - 0.0
27/01:30pm 6.9 1.7 0.1 62 2.9 NW 17 24 9 13 1021.9 - 0.0
27/01:00pm 7.4 2.6 -0.1 59 3.2 NNW 15 20 8 11 1022.1 - 0.0
27/12:30pm 7.4 2.3 0.6 62 2.9 N 17 26 9 14 1022.7 - 0.0
27/12:00pm 7.5 2.8 0.7 62 2.9 NNW 15 20 8 11 1023.3 1027.7 0.0
27/11:30am 8.2 3.6 -0.8 53 3.8 W 13 20 7 11 1023.7 - 0.0
27/11:00am 8.2 4.8 1.6 63 2.9 NNW 9 15 5 8 1023.9 - 0.0
27/10:30am 7.6 4.2 1.7 66 2.6 N 9 13 5 7 1024.0 - 0.0
27/10:00am 6.5 3.3 1.0 68 2.4 N 7 13 4 7 1024.1 - 0.0
27/09:30am 5.6 2.5 1.2 73 1.9 N 7 9 4 5 1024.2 - 0.0
27/09:00am 4.6 1.4 0.7 76 1.6 NNW 7 11 4 6 1024.1 1028.5 0.0
27/08:30am 3.9 0.9 0.9 81 1.3 NNW 6 7 3 4 1024.1 - 0.0
27/08:00am 1.9 -0.8 0.0 87 0.8 WNW 4 6 2 3 1024.0 - 0.0
27/07:52am 1.3 -1.5 -0.5 88 0.7 NW 4 6 2 3 1024.0 - 0.0
27/07:35am 1.6 -1.6 -0.3 87 0.8 WNW 6 7 3 4 1023.9 - 0.0
27/07:30am 1.3 -2.0 -0.9 85 0.9 WNW 6 11 3 6 1023.9 - 0.0
27/07:00am 2.2 -0.9 -0.1 85 0.9 WNW 6 11 3 6 1023.9 - 0.0
27/06:30am 3.2 0.1 -0.1 79 1.3 WSW 6 11 3 6 1023.8 - 0.0
27/06:00am 3.7 0.0 0.2 78 1.4 W 9 15 5 8 1023.6 1027.9 0.0
27/05:30am 3.7 0.4 0.4 79 1.4 W 7 11 4 6 1023.3 - 0.0
27/05:00am 3.7 0.7 0.6 80 1.3 SW 6 11 3 6 1023.2 - 0.0
27/04:30am 3.9 0.3 0.6 79 1.4 WSW 9 20 5 11 1023.5 - 0.0
27/04:00am 4.0 0.7 0.3 77 1.5 WSW 7 9 4 5 1023.2 - 0.0
27/03:30am 4.1 0.9 0.6 78 1.5 WSW 7 11 4 6 1023.3 - 0.0
27/03:00am 3.7 0.7 1.1 83 1.1 WNW 6 7 3 4 1023.5 1027.8 0.0

Other Formats:

Comma delimited format used in spreadsheet applications
http://www.bom.gov.au/fwo/IDV60801/IDV60801.94905.axf

JavaScript Object Notation format (JSON) in row-major order
http://www.bom.gov.au/fwo/IDV60801/IDV60801.94905.json